createdAt,value
2022-08-26T00:00:01.098Z,85
2022-08-26T00:01:05.122Z,85
2022-08-26T00:02:07.337Z,85
2022-08-26T00:03:11.080Z,85
2022-08-26T00:04:13.160Z,85.1
2022-08-26T00:05:15.121Z,85.1
2022-08-26T00:06:17.132Z,85.1
2022-08-26T00:07:19.095Z,85.1
2022-08-26T00:08:23.083Z,85.1
2022-08-26T00:09:25.150Z,85.1
2022-08-26T00:10:29.096Z,85.1
2022-08-26T00:11:33.285Z,85
2022-08-26T00:12:37.547Z,85.1
2022-08-26T00:13:42.100Z,85
2022-08-26T00:14:45.106Z,85
2022-08-26T00:15:49.099Z,85.1
2022-08-26T00:16:53.358Z,85
2022-08-26T00:17:55.143Z,85.1
2022-08-26T00:18:57.112Z,85.1
2022-08-26T00:20:01.115Z,85.1
2022-08-26T00:21:06.174Z,85.1
2022-08-26T00:22:07.153Z,85
2022-08-26T00:23:11.107Z,85
2022-08-26T00:24:13.109Z,84.9
2022-08-26T00:25:17.128Z,85
2022-08-26T00:26:19.102Z,85
2022-08-26T00:27:24.041Z,85
2022-08-26T00:28:25.112Z,85
2022-08-26T00:29:29.111Z,85
2022-08-26T00:30:33.122Z,85
2022-08-26T00:31:37.299Z,85
2022-08-26T00:32:42.117Z,85
2022-08-26T00:33:46.112Z,85
2022-08-26T00:34:50.116Z,85
2022-08-26T00:35:54.118Z,84.9
2022-08-26T00:36:58.124Z,84.9
2022-08-26T00:38:00.116Z,84.9
2022-08-26T00:39:02.116Z,84.9
2022-08-26T00:40:06.205Z,84.9
2022-08-26T00:41:10.122Z,84.9
2022-08-26T00:42:14.146Z,84.9
2022-08-26T00:43:18.125Z,84.9
2022-08-26T00:44:20.134Z,85
2022-08-26T00:45:24.149Z,85
2022-08-26T00:46:28.186Z,85
2022-08-26T00:47:31.100Z,85
2022-08-26T00:48:34.120Z,85.1
2022-08-26T00:49:38.125Z,85
2022-08-26T00:50:42.136Z,85
2022-08-26T00:51:45.154Z,85
2022-08-26T00:52:49.132Z,85
2022-08-26T00:53:53.137Z,84.9
2022-08-26T00:54:55.129Z,84.9
2022-08-26T00:55:59.127Z,84.9
2022-08-26T00:57:03.170Z,84.9
2022-08-26T00:58:07.139Z,84.9
2022-08-26T00:59:11.143Z,84.9
2022-08-26T01:00:15.136Z,84.9
2022-08-26T01:01:19.194Z,84.9
2022-08-26T01:02:23.271Z,84.8
2022-08-26T01:03:27.140Z,84.8
2022-08-26T01:04:31.137Z,84.9
2022-08-26T01:05:35.146Z,84.9
2022-08-26T01:06:39.140Z,84.9
2022-08-26T01:07:43.170Z,84.9
2022-08-26T01:08:47.138Z,84.9
2022-08-26T01:09:51.146Z,84.8
2022-08-26T01:10:55.868Z,84.9
2022-08-26T01:11:57.146Z,84.9
2022-08-26T01:12:59.154Z,84.8
2022-08-26T01:14:03.137Z,84.9
2022-08-26T01:15:07.148Z,84.8
2022-08-26T01:16:11.216Z,84.9
2022-08-26T01:17:15.144Z,84.8
2022-08-26T01:18:19.160Z,84.8
2022-08-26T01:19:23.187Z,84.8
2022-08-26T01:20:27.156Z,84.8
2022-08-26T01:21:31.191Z,84.8
2022-08-26T01:22:35.152Z,84.8
2022-08-26T01:23:37.154Z,84.9
2022-08-26T01:24:42.183Z,84.9
2022-08-26T01:25:45.156Z,84.9
2022-08-26T01:26:47.191Z,84.9
2022-08-26T01:27:51.156Z,84.9
2022-08-26T01:28:53.152Z,84.9
2022-08-26T01:29:55.160Z,84.8
2022-08-26T01:30:59.163Z,84.8
2022-08-26T01:32:03.203Z,84.8
2022-08-26T01:33:07.310Z,84.7
2022-08-26T01:34:11.158Z,84.7
2022-08-26T01:35:13.171Z,84.8
2022-08-26T01:36:15.171Z,84.8
2022-08-26T01:37:17.244Z,84.8
2022-08-26T01:38:21.165Z,84.7
2022-08-26T01:39:25.215Z,84.8
2022-08-26T01:40:29.270Z,84.8
2022-08-26T01:41:33.464Z,84.8
2022-08-26T01:42:35.172Z,84.8
2022-08-26T01:43:38.312Z,84.8
2022-08-26T01:44:42.231Z,84.7
2022-08-26T01:45:45.231Z,84.7
2022-08-26T01:46:49.216Z,84.7
2022-08-26T01:47:56.641Z,84.8
2022-08-26T01:48:57.177Z,84.7
2022-08-26T01:50:02.839Z,84.8
2022-08-26T01:51:05.183Z,84.8
2022-08-26T01:52:07.225Z,84.8
2022-08-26T01:53:11.489Z,84.8
2022-08-26T01:54:15.180Z,84.8
2022-08-26T01:55:32.324Z,84.8
2022-08-26T01:56:21.359Z,84.8
2022-08-26T01:57:25.191Z,84.8
2022-08-26T01:58:29.183Z,84.7
2022-08-26T01:59:31.184Z,84.7
2022-08-26T02:00:35.340Z,84.7
2022-08-26T02:01:37.188Z,84.7
2022-08-26T02:02:42.196Z,84.7
2022-08-26T02:03:45.211Z,84.7
2022-08-26T02:04:49.914Z,84.7
2022-08-26T02:05:53.872Z,84.7
2022-08-26T02:06:57.235Z,84.7
2022-08-26T02:07:59.525Z,84.7
2022-08-26T02:09:03.371Z,84.7
2022-08-26T02:10:07.201Z,84.7
2022-08-26T02:11:11.195Z,84.7
2022-08-26T02:12:13.259Z,84.7
2022-08-26T02:13:17.197Z,84.7
2022-08-26T02:14:21.532Z,84.7
2022-08-26T02:15:23.847Z,84.8
2022-08-26T02:16:25.307Z,84.8
2022-08-26T02:17:27.208Z,84.7
2022-08-26T02:18:31.212Z,84.7
2022-08-26T02:19:35.256Z,84.7
2022-08-26T02:20:39.212Z,84.7
2022-08-26T02:21:43.210Z,84.7
2022-08-26T02:22:47.208Z,84.7
2022-08-26T02:23:49.207Z,84.7
2022-08-26T02:24:53.251Z,84.7
2022-08-26T02:25:57.202Z,84.7
2022-08-26T02:27:01.210Z,84.7
2022-08-26T02:28:05.259Z,84.7
2022-08-26T02:29:07.582Z,84.7
2022-08-26T02:30:11.567Z,84.7
2022-08-26T02:31:13.251Z,84.7
2022-08-26T02:32:18.557Z,84.7
2022-08-26T02:33:19.215Z,84.6
2022-08-26T02:34:23.224Z,84.7
2022-08-26T02:35:27.267Z,84.6
2022-08-26T02:36:29.210Z,84.7
2022-08-26T02:37:34.028Z,84.7
2022-08-26T02:38:37.310Z,84.7
2022-08-26T02:39:42.360Z,84.6
2022-08-26T02:40:46.285Z,84.6
2022-08-26T02:41:50.235Z,84.6
2022-08-26T02:42:55.848Z,84.6
2022-08-26T02:43:58.258Z,84.5
2022-08-26T02:45:02.248Z,84.6
2022-08-26T02:46:06.229Z,84.6
2022-08-26T02:47:10.344Z,84.6
2022-08-26T02:48:14.238Z,84.6
2022-08-26T02:49:16.264Z,84.6
2022-08-26T02:50:18.250Z,84.6
2022-08-26T02:51:22.230Z,84.6
2022-08-26T02:52:26.266Z,84.6
2022-08-26T02:53:28.231Z,84.6
2022-08-26T02:54:30.248Z,84.6
2022-08-26T02:55:34.244Z,84.6
2022-08-26T02:56:38.588Z,84.6
2022-08-26T02:57:40.268Z,84.6
2022-08-26T02:58:42.244Z,84.5
2022-08-26T02:59:45.283Z,84.6
2022-08-26T03:00:53.140Z,84.5
2022-08-26T03:01:51.607Z,84.6
2022-08-26T03:02:55.271Z,84.6
2022-08-26T03:03:59.247Z,84.5
2022-08-26T03:05:03.272Z,84.5
2022-08-26T03:06:05.252Z,84.5
2022-08-26T03:07:07.257Z,84.6
2022-08-26T03:08:09.246Z,84.6
2022-08-26T03:09:15.983Z,84.5
2022-08-26T03:10:17.584Z,84.6
2022-08-26T03:11:21.259Z,84.5
2022-08-26T03:12:25.742Z,84.5
2022-08-26T03:13:29.247Z,84.5
2022-08-26T03:14:33.250Z,84.5
2022-08-26T03:15:37.563Z,84.6
2022-08-26T03:16:42.262Z,84.5
2022-08-26T03:17:46.256Z,84.6
2022-08-26T03:18:52.194Z,84.6
2022-08-26T03:19:57.024Z,84.5
2022-08-26T03:20:56.248Z,84.6
2022-08-26T03:22:00.652Z,84.6
2022-08-26T03:23:04.328Z,84.5
2022-08-26T03:24:06.318Z,84.5
2022-08-26T03:25:10.279Z,84.6
2022-08-26T03:26:14.263Z,84.5
2022-08-26T03:27:16.325Z,84.6
2022-08-26T03:28:18.269Z,84.6
2022-08-26T03:29:20.263Z,84.6
2022-08-26T03:30:22.270Z,84.5
2022-08-26T03:31:24.662Z,84.5
2022-08-26T03:32:27.042Z,84.6
2022-08-26T03:33:28.265Z,84.5
2022-08-26T03:34:30.305Z,84.4
2022-08-26T03:35:34.269Z,84.4
2022-08-26T03:36:38.270Z,84.4
2022-08-26T03:37:42.330Z,84.5
2022-08-26T03:38:45.280Z,84.5
2022-08-26T03:39:49.460Z,84.5
2022-08-26T03:40:51.403Z,84.6
2022-08-26T03:41:53.277Z,84.5
2022-08-26T03:44:01.689Z,84.4
2022-08-26T03:45:03.378Z,84.5
2022-08-26T03:46:07.431Z,84.5
2022-08-26T03:47:10.356Z,84.5
2022-08-26T03:48:14.354Z,84.4
2022-08-26T03:49:18.356Z,84.4
2022-08-26T03:50:22.729Z,84.5
2022-08-26T03:51:24.355Z,84.5
2022-08-26T03:52:28.400Z,84.4
2022-08-26T03:53:32.364Z,84.4
2022-08-26T03:54:36.364Z,84.4
2022-08-26T03:55:40.407Z,84.5
2022-08-26T03:56:44.357Z,84.5
2022-08-26T03:57:46.364Z,84.5
2022-08-26T03:58:48.364Z,84.5
2022-08-26T03:59:50.361Z,84.5
2022-08-26T04:00:55.771Z,84.5
2022-08-26T04:02:03.130Z,84.5
2022-08-26T04:03:06.042Z,84.5
2022-08-26T04:04:04.921Z,84.5
2022-08-26T04:05:08.380Z,84.5
2022-08-26T04:06:10.369Z,84.5
2022-08-26T04:07:14.369Z,84.5
2022-08-26T04:08:16.377Z,84.5
2022-08-26T04:09:20.418Z,84.5
2022-08-26T04:10:28.912Z,84.5
2022-08-26T04:11:28.381Z,84.5
2022-08-26T04:12:30.369Z,84.4
2022-08-26T04:13:34.377Z,84.4
2022-08-26T04:14:38.405Z,84.4
2022-08-26T04:15:42.435Z,84.4
2022-08-26T04:16:46.376Z,84.4
2022-08-26T04:17:50.377Z,84.4
2022-08-26T04:18:54.378Z,84.4
2022-08-26T04:19:56.418Z,84.5
2022-08-26T04:21:01.909Z,84.5
2022-08-26T04:22:04.389Z,84.5
2022-08-26T04:23:08.487Z,84.4
2022-08-26T04:24:12.080Z,84.4
2022-08-26T04:25:14.409Z,84.4
2022-08-26T04:26:16.386Z,84.4
2022-08-26T04:27:20.417Z,84.4
2022-08-26T04:28:24.386Z,84.4
2022-08-26T04:29:38.485Z,84.4
2022-08-26T04:30:32.387Z,84.3
2022-08-26T04:31:36.426Z,84.3
2022-08-26T04:32:40.388Z,84.3
2022-08-26T04:33:44.390Z,84.3
2022-08-26T04:34:48.394Z,84.3
2022-08-26T04:35:52.435Z,84.3
2022-08-26T04:36:56.435Z,84.3
2022-08-26T04:38:10.507Z,84.4
2022-08-26T04:39:04.395Z,84.3
2022-08-26T04:40:07.448Z,84.2
2022-08-26T04:41:22.495Z,84.2
2022-08-26T04:42:19.897Z,84.2
2022-08-26T04:43:20.403Z,84.2
2022-08-26T04:44:24.406Z,84.2
2022-08-26T04:45:28.404Z,84.2
2022-08-26T04:46:32.505Z,84.2
2022-08-26T04:47:36.443Z,84.2
2022-08-26T04:48:40.409Z,84.2
2022-08-26T04:49:44.408Z,84.2
2022-08-26T04:50:49.589Z,84.3
2022-08-26T04:51:52.447Z,84.3
2022-08-26T04:52:56.417Z,84.3
2022-08-26T04:54:00.412Z,84.3
2022-08-26T04:55:04.420Z,84.3
2022-08-26T04:56:07.440Z,84.3
2022-08-26T04:57:12.452Z,84.2
2022-08-26T04:58:16.416Z,84.2
2022-08-26T04:59:20.451Z,84.2
2022-08-26T05:00:22.411Z,84.2
2022-08-26T05:01:26.457Z,84.2
2022-08-26T05:02:30.411Z,84.2
2022-08-26T05:03:34.412Z,84.2
2022-08-26T05:04:38.457Z,84.2
2022-08-26T05:05:42.430Z,84.2
2022-08-26T05:06:44.420Z,84.2
2022-08-26T05:07:48.422Z,84.2
2022-08-26T05:08:52.424Z,84.2
2022-08-26T05:09:54.452Z,84.1
2022-08-26T05:10:58.441Z,84.1
2022-08-26T05:12:02.428Z,84.1
2022-08-26T05:13:04.495Z,84.1
2022-08-26T05:14:07.451Z,84
2022-08-26T05:15:12.472Z,84
2022-08-26T05:16:16.504Z,84
2022-08-26T05:17:20.434Z,84
2022-08-26T05:18:24.451Z,84
2022-08-26T05:19:28.472Z,84
2022-08-26T05:20:32.437Z,84
2022-08-26T05:21:36.429Z,84
2022-08-26T05:22:40.447Z,84.1
2022-08-26T05:23:44.437Z,84.2
2022-08-26T05:24:46.473Z,84.2
2022-08-26T05:25:50.436Z,84.2
2022-08-26T05:26:54.461Z,84.1
2022-08-26T05:27:58.434Z,84.1
2022-08-26T05:29:02.440Z,84.1
2022-08-26T05:30:07.514Z,84.1
2022-08-26T05:31:10.480Z,84
2022-08-26T05:32:14.477Z,84.1
2022-08-26T05:33:18.451Z,84
2022-08-26T05:34:22.435Z,84
2022-08-26T05:35:26.483Z,84
2022-08-26T05:36:30.495Z,84
2022-08-26T05:37:34.437Z,84
2022-08-26T05:38:38.446Z,84
2022-08-26T05:39:43.557Z,84
2022-08-26T05:40:46.447Z,84.1
2022-08-26T05:41:50.473Z,84.1
2022-08-26T05:42:54.485Z,84.1
2022-08-26T05:43:58.433Z,84.1
2022-08-26T05:45:02.442Z,84.1
2022-08-26T05:46:07.544Z,84.1
2022-08-26T05:47:10.471Z,84.1
2022-08-26T05:48:14.453Z,84.1
2022-08-26T05:49:18.467Z,84.1
2022-08-26T05:50:22.442Z,84.1
2022-08-26T05:51:26.440Z,84.1
2022-08-26T05:52:28.476Z,84.1
2022-08-26T05:53:32.454Z,84.1
2022-08-26T05:54:36.460Z,84
2022-08-26T05:55:40.456Z,84
2022-08-26T05:56:42.437Z,84
2022-08-26T05:57:44.455Z,84
2022-08-26T05:58:48.455Z,84
2022-08-26T05:59:52.480Z,84
2022-08-26T06:00:56.446Z,83.9
2022-08-26T06:02:00.510Z,83.8
2022-08-26T06:03:04.670Z,83.9
2022-08-26T06:04:08.465Z,83.8
2022-08-26T06:05:12.456Z,83.9
2022-08-26T06:06:16.473Z,83.9
2022-08-26T06:07:20.478Z,83.8
2022-08-26T06:08:24.477Z,83.9
2022-08-26T06:09:28.464Z,83.9
2022-08-26T06:10:33.055Z,83.9
2022-08-26T06:11:36.468Z,83.9
2022-08-26T06:12:40.495Z,84
2022-08-26T06:13:44.467Z,83.9
2022-08-26T06:14:49.066Z,83.8
2022-08-26T06:15:52.542Z,83.8
2022-08-26T06:16:56.466Z,83.9
2022-08-26T06:18:00.510Z,83.8
2022-08-26T06:19:10.360Z,83.8
2022-08-26T06:20:08.494Z,83.9
2022-08-26T06:21:12.498Z,83.9
2022-08-26T06:22:14.470Z,83.8
2022-08-26T06:23:18.483Z,83.9
2022-08-26T06:24:26.972Z,83.8
2022-08-26T06:25:26.489Z,83.9
2022-08-26T06:26:30.527Z,83.9
2022-08-26T06:27:34.480Z,83.9
2022-08-26T06:28:38.483Z,83.9
2022-08-26T06:29:42.482Z,83.9
2022-08-26T06:30:46.520Z,83.9
2022-08-26T06:31:50.503Z,83.9
2022-08-26T06:32:54.526Z,83.9
2022-08-26T06:33:58.507Z,83.9
2022-08-26T06:35:02.510Z,83.9
2022-08-26T06:36:07.503Z,83.9
2022-08-26T06:37:10.538Z,83.9
2022-08-26T06:38:14.501Z,83.9
2022-08-26T06:39:18.509Z,83.9
2022-08-26T06:40:22.570Z,83.9
2022-08-26T06:41:26.497Z,83.9
2022-08-26T06:42:30.499Z,83.9
2022-08-26T06:43:34.501Z,84
2022-08-26T06:44:38.503Z,83.9
2022-08-26T06:45:42.505Z,84
2022-08-26T06:46:50.210Z,84
2022-08-26T06:47:50.498Z,84
2022-08-26T06:48:54.500Z,84
2022-08-26T06:49:58.508Z,84
2022-08-26T06:51:02.502Z,84
2022-08-26T06:52:07.521Z,84
2022-08-26T06:53:10.510Z,84
2022-08-26T06:54:14.510Z,84.1
2022-08-26T06:55:18.508Z,84
2022-08-26T06:56:22.504Z,84
2022-08-26T06:57:24.533Z,84
2022-08-26T06:58:27.505Z,84.1
2022-08-26T06:59:31.515Z,84.1
2022-08-26T07:00:35.515Z,84.1
2022-08-26T07:01:43.067Z,84.1
2022-08-26T07:02:46.912Z,84.1
2022-08-26T07:03:47.515Z,84.2
2022-08-26T07:04:51.517Z,84.2
2022-08-26T07:05:55.515Z,84.2
2022-08-26T07:06:59.559Z,84.2
2022-08-26T07:08:03.523Z,84.2
2022-08-26T07:09:07.654Z,84.3
2022-08-26T07:10:10.521Z,84.2
2022-08-26T07:11:14.527Z,84.3
2022-08-26T07:12:16.569Z,84.3
2022-08-26T07:13:30.491Z,84.3
2022-08-26T07:14:24.524Z,84.3
2022-08-26T07:15:31.475Z,84.3
2022-08-26T07:16:33.533Z,84.3
2022-08-26T07:17:35.555Z,84.3
2022-08-26T07:18:39.529Z,84.3
2022-08-26T07:19:43.527Z,84.4
2022-08-26T07:20:47.529Z,84.4
2022-08-26T07:21:51.524Z,84.4
2022-08-26T07:22:55.578Z,84.4
2022-08-26T07:24:01.387Z,84.4
2022-08-26T07:25:03.573Z,84.3
2022-08-26T07:26:07.549Z,84.3
2022-08-26T07:27:10.551Z,84.3
2022-08-26T07:28:12.538Z,84.4
2022-08-26T07:29:17.559Z,84.4
2022-08-26T07:30:21.703Z,84.4
2022-08-26T07:31:25.613Z,84.4
2022-08-26T07:32:29.549Z,84.4
2022-08-26T07:33:33.576Z,84.5
2022-08-26T07:34:37.555Z,84.5
2022-08-26T07:35:41.543Z,84.5
2022-08-26T07:36:45.551Z,84.5
2022-08-26T07:37:51.881Z,84.5
2022-08-26T07:38:53.572Z,84.4
2022-08-26T07:39:57.572Z,84.4
2022-08-26T07:41:01.583Z,84.4
2022-08-26T07:42:07.777Z,84.4
2022-08-26T07:43:07.732Z,84.4
2022-08-26T07:44:10.557Z,84.4
2022-08-26T07:45:12.551Z,84.4
2022-08-26T07:46:16.612Z,84.4
2022-08-26T07:47:25.868Z,84.4
2022-08-26T07:48:24.548Z,84.4
2022-08-26T07:49:28.777Z,84.4
2022-08-26T07:50:49.818Z,84.4
2022-08-26T07:51:36.556Z,84.5
2022-08-26T07:52:40.586Z,84.4
2022-08-26T07:53:44.565Z,84.5
2022-08-26T07:54:48.564Z,84.5
2022-08-26T07:55:52.564Z,84.5
2022-08-26T07:56:56.635Z,84.5
2022-08-26T07:58:00.597Z,84.5
2022-08-26T07:59:13.798Z,84.5
2022-08-26T08:00:07.594Z,84.5
2022-08-26T08:01:12.584Z,84.5
2022-08-26T08:02:16.563Z,84.5
2022-08-26T08:03:20.566Z,84.5
2022-08-26T08:04:26.754Z,84.5
2022-08-26T08:05:33.372Z,84.5
2022-08-26T08:06:32.561Z,84.5
2022-08-26T08:07:44.979Z,84.5
2022-08-26T08:08:40.573Z,84.5
2022-08-26T08:09:44.618Z,84.5
2022-08-26T08:10:48.796Z,84.5
2022-08-26T08:11:51.289Z,84.5
2022-08-26T08:12:54.615Z,84.5
2022-08-26T08:13:56.902Z,84.5
2022-08-26T08:15:00.578Z,84.5
2022-08-26T08:16:04.579Z,84.5
2022-08-26T08:17:07.791Z,84.5
2022-08-26T08:18:15.312Z,84.5
2022-08-26T08:19:16.579Z,84.5
2022-08-26T08:20:20.583Z,84.5
2022-08-26T08:21:24.608Z,84.5
2022-08-26T08:22:28.588Z,84.5
2022-08-26T08:23:32.581Z,84.5
2022-08-26T08:24:36.588Z,84.5
2022-08-26T08:25:40.578Z,84.6
2022-08-26T08:26:44.616Z,84.5
2022-08-26T08:27:48.585Z,84.5
2022-08-26T08:28:52.636Z,84.5
2022-08-26T08:29:56.588Z,84.6
2022-08-26T08:31:00.681Z,84.6
2022-08-26T08:32:04.693Z,84.6
2022-08-26T08:33:08.597Z,84.6
2022-08-26T08:34:12.625Z,84.6
2022-08-26T08:35:16.592Z,84.6
2022-08-26T08:36:20.612Z,84.6
2022-08-26T08:37:24.588Z,84.6
2022-08-26T08:38:28.595Z,84.6
2022-08-26T08:39:32.633Z,84.6
2022-08-26T08:40:36.651Z,84.6
2022-08-26T08:41:40.586Z,84.6
2022-08-26T08:42:44.672Z,84.6
2022-08-26T08:43:48.602Z,84.6
2022-08-26T08:44:52.884Z,84.6
2022-08-26T08:45:56.638Z,84.6
2022-08-26T08:47:00.639Z,84.6
2022-08-26T08:48:04.701Z,84.6
2022-08-26T08:49:08.641Z,84.7
2022-08-26T08:50:12.595Z,84.7
2022-08-26T08:51:16.616Z,84.7
2022-08-26T08:52:20.620Z,84.6
2022-08-26T08:53:24.608Z,84.7
2022-08-26T08:54:28.767Z,84.7
2022-08-26T08:55:32.619Z,84.7
2022-08-26T08:56:36.614Z,84.7
2022-08-26T08:57:40.631Z,84.7
2022-08-26T08:58:44.620Z,84.7
2022-08-26T08:59:48.648Z,84.7
2022-08-26T09:00:52.680Z,84.7
2022-08-26T09:01:56.636Z,84.7
2022-08-26T09:03:00.659Z,84.7
2022-08-26T09:04:04.625Z,84.7
2022-08-26T09:05:08.680Z,84.8
2022-08-26T09:06:12.624Z,84.8
2022-08-26T09:07:16.624Z,84.8
2022-08-26T09:08:20.631Z,84.8
2022-08-26T09:09:24.626Z,84.8
2022-08-26T09:10:28.791Z,84.8
2022-08-26T09:11:32.626Z,84.8
2022-08-26T09:12:36.627Z,84.8
2022-08-26T09:13:40.628Z,84.8
2022-08-26T09:14:44.639Z,84.8
2022-08-26T09:15:48.660Z,84.8
2022-08-26T09:16:52.705Z,84.8
2022-08-26T09:17:56.667Z,84.8
2022-08-26T09:19:00.652Z,84.8
2022-08-26T09:20:04.644Z,84.8
2022-08-26T09:21:08.640Z,84.9
2022-08-26T09:22:12.708Z,84.9
2022-08-26T09:23:16.637Z,84.9
2022-08-26T09:24:20.642Z,84.9
2022-08-26T09:25:24.634Z,84.9
2022-08-26T09:26:29.576Z,84.9
2022-08-26T09:27:32.666Z,84.9
2022-08-26T09:28:36.635Z,84.9
2022-08-26T09:29:40.639Z,85
2022-08-26T09:30:44.722Z,84.9
2022-08-26T09:31:48.640Z,85
2022-08-26T09:32:55.903Z,85
2022-08-26T09:33:56.643Z,85
2022-08-26T09:35:00.686Z,85
2022-08-26T09:36:04.651Z,85
2022-08-26T09:37:08.645Z,85
2022-08-26T09:38:13.152Z,85
2022-08-26T09:39:16.653Z,84.9
2022-08-26T09:40:20.754Z,84.9
2022-08-26T09:41:24.664Z,84.9
2022-08-26T09:42:28.659Z,84.9
2022-08-26T09:43:32.659Z,85
2022-08-26T09:44:36.674Z,85
2022-08-26T09:45:40.732Z,85
2022-08-26T09:46:44.651Z,84.9
2022-08-26T09:47:48.651Z,84.9
2022-08-26T09:48:53.208Z,85
2022-08-26T09:49:56.701Z,85
2022-08-26T09:51:00.693Z,85
2022-08-26T09:52:04.651Z,85
2022-08-26T09:53:09.957Z,85
2022-08-26T09:54:12.665Z,85
2022-08-26T09:55:14.695Z,85
2022-08-26T09:56:18.671Z,85.1
2022-08-26T09:57:23.719Z,85.1
2022-08-26T09:58:27.669Z,85
2022-08-26T09:59:31.665Z,85
2022-08-26T10:00:38.367Z,85.1
2022-08-26T10:01:39.755Z,85.1
2022-08-26T10:02:47.891Z,85.1
2022-08-26T10:03:47.684Z,85.1
2022-08-26T10:04:51.673Z,85.2
2022-08-26T10:05:55.682Z,85.2
2022-08-26T10:06:59.730Z,85.2
2022-08-26T10:08:01.709Z,85.3
2022-08-26T10:09:08.876Z,85.4
2022-08-26T10:10:07.700Z,85.4
2022-08-26T10:11:10.685Z,85.4
2022-08-26T10:12:14.683Z,85.4
2022-08-26T10:13:19.684Z,85.4
2022-08-26T10:14:23.751Z,85.4
2022-08-26T10:15:27.678Z,85.4
2022-08-26T10:16:31.722Z,85.5
2022-08-26T10:17:35.676Z,85.5
2022-08-26T10:18:39.692Z,85.5
2022-08-26T10:19:56.910Z,85.5
2022-08-26T10:20:47.696Z,85.6
2022-08-26T10:21:52.244Z,85.6
2022-08-26T10:22:55.716Z,85.6
2022-08-26T10:23:59.685Z,85.7
2022-08-26T10:25:03.764Z,85.7
2022-08-26T10:26:07.706Z,85.7
2022-08-26T10:27:10.693Z,85.7
2022-08-26T10:28:14.698Z,85.7
2022-08-26T10:29:18.729Z,85.7
2022-08-26T10:30:22.699Z,85.6
2022-08-26T10:31:27.603Z,85.6
2022-08-26T10:32:30.781Z,85.6
2022-08-26T10:33:34.690Z,85.6
2022-08-26T10:34:38.689Z,85.6
2022-08-26T10:35:42.698Z,85.6
2022-08-26T10:37:10.765Z,85.6
2022-08-26T10:37:50.695Z,85.6
2022-08-26T10:38:54.695Z,85.6
2022-08-26T10:39:59.251Z,85.6
2022-08-26T10:41:02.693Z,85.6
2022-08-26T10:42:07.744Z,85.6
2022-08-26T10:43:11.503Z,85.6
2022-08-26T10:44:14.732Z,85.7
2022-08-26T10:45:18.702Z,85.7
2022-08-26T10:46:22.750Z,85.7
2022-08-26T10:47:26.703Z,85.7
2022-08-26T10:48:35.578Z,85.7
2022-08-26T10:49:34.699Z,85.7
2022-08-26T10:50:38.710Z,85.6
2022-08-26T10:51:42.709Z,85.6
2022-08-26T10:52:46.709Z,85.6
2022-08-26T10:53:51.595Z,85.6
2022-08-26T10:54:54.713Z,85.6
2022-08-26T10:55:58.716Z,85.5
2022-08-26T10:57:02.756Z,85.5
2022-08-26T10:58:09.123Z,85.5
2022-08-26T10:59:12.563Z,85.5
2022-08-26T11:00:14.746Z,85.5
2022-08-26T11:01:22.701Z,85.5
2022-08-26T11:02:25.074Z,85.5
2022-08-26T11:03:26.717Z,85.5
2022-08-26T11:04:30.790Z,85.5
2022-08-26T11:05:34.719Z,85.5
2022-08-26T11:06:38.722Z,85.5
2022-08-26T11:07:42.747Z,85.5
2022-08-26T11:08:46.733Z,85.4
2022-08-26T11:09:50.725Z,85.5
2022-08-26T11:10:54.712Z,85.5
2022-08-26T11:11:58.720Z,85.5
2022-08-26T11:13:02.768Z,85.5
2022-08-26T11:14:07.741Z,85.5
2022-08-26T11:15:10.715Z,85.6
2022-08-26T11:16:14.846Z,85.5
2022-08-26T11:17:18.729Z,85.5
2022-08-26T11:18:22.729Z,85.5
2022-08-26T11:19:39.923Z,85.5
2022-08-26T11:20:30.723Z,85.5
2022-08-26T11:21:34.734Z,85.5
2022-08-26T11:22:47.561Z,85.4
2022-08-26T11:23:42.738Z,85.4
2022-08-26T11:24:46.745Z,85.5
2022-08-26T11:25:50.762Z,85.4
2022-08-26T11:26:56.204Z,85.4
2022-08-26T11:27:58.738Z,85.4
2022-08-26T11:29:03.166Z,85.4
2022-08-26T11:30:07.784Z,85.4
2022-08-26T11:31:10.775Z,85.4
2022-08-26T11:32:14.784Z,85.4
2022-08-26T11:33:18.758Z,85.4
2022-08-26T11:34:22.742Z,85.4
2022-08-26T11:35:26.749Z,85.4
2022-08-26T11:36:30.784Z,85.4
2022-08-26T11:37:34.741Z,85.4
2022-08-26T11:38:38.747Z,85.4
2022-08-26T11:39:46.282Z,85.4
2022-08-26T11:40:46.817Z,85.4
2022-08-26T11:41:52.641Z,85.4
2022-08-26T11:42:54.748Z,85.4
2022-08-26T11:43:58.751Z,85.4
2022-08-26T11:45:05.340Z,85.5
2022-08-26T11:46:07.884Z,85.5
2022-08-26T11:47:11.601Z,85.5
2022-08-26T11:48:14.763Z,85.5
2022-08-26T11:49:18.789Z,85.5
2022-08-26T11:50:22.761Z,85.5
2022-08-26T11:51:26.752Z,85.5
2022-08-26T11:52:30.804Z,85.5
2022-08-26T11:53:34.765Z,85.5
2022-08-26T11:54:38.753Z,85.5
2022-08-26T11:55:42.763Z,85.6
2022-08-26T11:56:46.758Z,85.6
2022-08-26T11:57:50.827Z,85.6
2022-08-26T11:58:54.754Z,85.6
2022-08-26T11:59:58.762Z,85.6
2022-08-26T12:01:03.624Z,85.6
2022-08-26T12:02:07.776Z,85.6
2022-08-26T12:03:11.049Z,85.6
2022-08-26T12:04:14.907Z,85.6
2022-08-26T12:05:18.768Z,85.6
2022-08-26T12:06:20.832Z,85.6
2022-08-26T12:07:24.769Z,85.6
2022-08-26T12:08:28.773Z,85.6
2022-08-26T12:09:32.775Z,85.6
2022-08-26T12:10:37.779Z,85.6
2022-08-26T12:11:41.783Z,85.6
2022-08-26T12:12:45.777Z,85.6
2022-08-26T12:13:49.780Z,85.6
2022-08-26T12:14:53.779Z,85.6
2022-08-26T12:15:57.783Z,85.6
2022-08-26T12:17:01.785Z,85.6
2022-08-26T12:18:05.799Z,85.6
2022-08-26T12:19:07.911Z,85.6
2022-08-26T12:20:10.825Z,85.6
2022-08-26T12:21:14.788Z,85.6
2022-08-26T12:22:18.789Z,85.6
2022-08-26T12:23:22.809Z,85.7
2022-08-26T12:24:24.790Z,85.6
2022-08-26T12:25:30.681Z,85.6
2022-08-26T12:26:33.791Z,85.6
2022-08-26T12:27:37.796Z,85.6
2022-08-26T12:28:41.792Z,85.6
2022-08-26T12:29:48.526Z,85.5
2022-08-26T12:30:49.802Z,85.5
2022-08-26T12:31:53.833Z,85.5
2022-08-26T12:32:58.856Z,85.6
2022-08-26T12:34:01.815Z,85.6
2022-08-26T12:36:07.833Z,85.5
2022-08-26T12:37:10.816Z,85.5
2022-08-26T12:38:12.865Z,85.6
2022-08-26T12:39:17.865Z,85.6
2022-08-26T12:40:21.991Z,85.6
2022-08-26T12:41:25.850Z,85.6
2022-08-26T12:42:29.827Z,85.6
2022-08-26T12:43:33.834Z,85.5
2022-08-26T12:44:37.860Z,85.5
2022-08-26T12:45:41.867Z,85.5
2022-08-26T12:46:49.754Z,85.5
2022-08-26T12:47:49.856Z,85.5
2022-08-26T12:48:53.834Z,85.5
2022-08-26T12:49:57.868Z,85.5
2022-08-26T12:51:01.878Z,85.5
2022-08-26T12:52:05.833Z,85.5
2022-08-26T12:53:07.840Z,85.6
2022-08-26T12:54:10.836Z,85.6
2022-08-26T12:55:12.838Z,85.6
2022-08-26T12:56:17.940Z,85.6
2022-08-26T12:57:21.845Z,85.6
2022-08-26T12:58:25.841Z,85.6
2022-08-26T12:59:29.835Z,85.6
2022-08-26T13:00:33.849Z,85.6
2022-08-26T13:01:38.077Z,85.6
2022-08-26T13:02:41.843Z,85.7
2022-08-26T13:03:45.851Z,85.7
2022-08-26T13:04:49.844Z,85.7
2022-08-26T13:05:53.846Z,85.7
2022-08-26T13:06:57.889Z,85.7
2022-08-26T13:08:01.841Z,85.7
2022-08-26T13:09:05.890Z,85.7
2022-08-26T13:10:07.852Z,85.8
2022-08-26T13:11:10.851Z,85.7
2022-08-26T13:12:14.903Z,85.7
2022-08-26T13:13:16.851Z,85.7
2022-08-26T13:14:23.876Z,85.7
2022-08-26T13:15:25.852Z,85.7
2022-08-26T13:16:29.931Z,85.7
2022-08-26T13:17:33.891Z,85.8
2022-08-26T13:18:37.862Z,85.8
2022-08-26T13:19:41.846Z,85.7
2022-08-26T13:20:45.859Z,85.7
2022-08-26T13:21:49.875Z,85.7
2022-08-26T13:22:58.869Z,85.7
2022-08-26T13:23:57.849Z,85.7
2022-08-26T13:25:01.863Z,85.7
2022-08-26T13:26:05.864Z,85.7
2022-08-26T13:27:07.876Z,85.7
2022-08-26T13:28:10.859Z,85.7
2022-08-26T13:29:12.845Z,85.7
2022-08-26T13:30:16.851Z,85.8
2022-08-26T13:31:20.922Z,85.8
2022-08-26T13:32:26.906Z,85.8
2022-08-26T13:33:28.857Z,85.8
2022-08-26T13:34:32.869Z,85.8
2022-08-26T13:35:36.864Z,85.8
2022-08-26T13:36:40.848Z,85.8
2022-08-26T13:38:48.926Z,85.8
2022-08-26T13:39:52.944Z,85.8
2022-08-26T13:40:56.865Z,85.7
2022-08-26T13:42:00.869Z,85.8
2022-08-26T13:43:04.926Z,85.8
2022-08-26T13:44:08.914Z,85.8
2022-08-26T13:45:12.872Z,85.8
2022-08-26T13:46:16.935Z,85.8
2022-08-26T13:47:20.909Z,85.8
2022-08-26T13:48:24.874Z,85.7
2022-08-26T13:49:28.894Z,85.8
2022-08-26T13:50:32.897Z,85.7
2022-08-26T13:51:36.875Z,85.7
2022-08-26T13:52:41.150Z,85.7
2022-08-26T13:53:44.895Z,85.7
2022-08-26T13:54:48.889Z,85.7
2022-08-26T13:55:52.893Z,85.7
2022-08-26T13:56:56.878Z,85.7
2022-08-26T13:58:00.921Z,85.7
2022-08-26T13:59:04.905Z,85.7
2022-08-26T14:00:11.007Z,85.8
2022-08-26T14:01:12.934Z,85.7
2022-08-26T14:02:16.896Z,85.7
2022-08-26T14:03:20.921Z,85.7
2022-08-26T14:04:27.258Z,85.7
2022-08-26T14:05:28.924Z,85.7
2022-08-26T14:06:32.900Z,85.8
2022-08-26T14:07:36.891Z,85.8
2022-08-26T14:08:40.898Z,85.7
2022-08-26T14:09:44.898Z,85.8
2022-08-26T14:11:54.798Z,85.7
2022-08-26T14:12:56.896Z,85.8
2022-08-26T14:14:00.899Z,85.8
2022-08-26T14:15:04.919Z,85.8
2022-08-26T14:16:08.975Z,85.8
2022-08-26T14:17:12.894Z,85.7
2022-08-26T14:18:17.006Z,85.8